Time;durP1;ratioP1;P1;durP2;ratioP2;P2;SDS_P1;SDS_P2;PMS_P1;PMS_P2;Temp;Humidity;BMP_temperature;BMP_pressure;BME280_temperature;BME280_humidity;BME280_pressure;Samples;Min_cycle;Max_cycle;Signal;HPM_P1;HPM_P2
2021/12/11 00:00:56;;;;;;;30.60;15.57;;;;;;;1.28;90.08;100371.28;5061563;28;20472;-76
2021/12/11 00:03:29;;;;;;;28.85;15.25;;;;;;;1.20;89.42;100374.28;5047687;28;20106;-76
2021/12/11 00:06:01;;;;;;;27.77;14.38;;;;;;;1.16;89.84;100383.25;5032598;28;20029;-76
2021/12/11 00:08:30;;;;;;;28.98;15.07;;;;;;;1.11;89.17;100387.88;5036706;28;20107;-76
2021/12/11 00:11:00;;;;;;;29.15;15.43;;;;;;;1.09;89.12;100395.03;5033882;28;20048;-76
2021/12/11 00:13:29;;;;;;;30.90;16.00;;;;;;;1.06;90.33;100397.78;5049500;28;20029;-76
2021/12/11 00:15:56;;;;;;;30.03;16.03;;;;;;;1.06;89.98;100404.88;5046784;28;20082;-76
2021/12/11 00:18:24;;;;;;;35.22;18.95;;;;;;;1.02;90.47;100409.44;5047547;28;20040;-76
2021/12/11 00:20:56;;;;;;;27.58;14.30;;;;;;;0.99;89.40;100415.69;5037852;28;20057;-77
2021/12/11 00:23:27;;;;;;;34.03;15.65;;;;;;;0.98;89.69;100418.41;5043108;28;20086;-76
2021/12/11 00:25:52;;;;;;;30.63;16.27;;;;;;;1.01;90.13;100413.88;5031379;28;20047;-76
2021/12/11 00:28:17;;;;;;;31.13;17.63;;;;;;;1.00;90.03;100422.72;5031103;28;20033;-76
2021/12/11 00:30:46;;;;;;;28.42;15.77;;;;;;;0.97;89.74;100428.13;5049369;28;20029;-76
2021/12/11 00:33:19;;;;;;;29.00;16.17;;;;;;;0.98;89.84;100434.28;5040476;28;20024;-76
2021/12/11 00:35:46;;;;;;;29.92;15.57;;;;;;;0.96;89.72;100438.78;5032684;28;20781;-76
2021/12/11 00:38:18;;;;;;;32.60;17.13;;;;;;;0.89;89.44;100439.94;5050144;28;20032;-76
2021/12/11 00:40:45;;;;;;;30.27;16.25;;;;;;;0.88;89.62;100444.41;5051163;28;20085;-76
2021/12/11 00:43:17;;;;;;;34.05;16.83;;;;;;;0.86;89.73;100451.50;5039768;28;20022;-76
2021/12/11 00:45:44;;;;;;;27.02;14.98;;;;;;;0.86;89.70;100456.81;5047679;28;20051;-76
2021/12/11 00:48:13;;;;;;;32.05;17.73;;;;;;;0.86;89.59;100462.09;5059045;28;20028;-76
2021/12/11 00:50:46;;;;;;;32.38;17.40;;;;;;;0.86;89.15;100465.63;5051112;28;20083;-76
2021/12/11 00:53:17;;;;;;;31.92;17.13;;;;;;;0.81;89.62;100464.94;5040287;28;20033;-76
2021/12/11 00:55:51;;;;;;;31.15;15.68;;;;;;;0.80;89.33;100470.28;5041928;28;20120;-76
2021/12/11 00:58:38;;;;;;;28.83;16.02;;;;;;;0.80;89.55;100476.41;5040438;28;20434;-76
2021/12/11 01:01:16;;;;;;;35.15;16.02;;;;;;;0.76;89.10;100481.88;5047832;28;20060;-76
2021/12/11 01:03:47;;;;;;;32.22;17.40;;;;;;;0.72;89.17;100485.56;5041285;28;20033;-76
2021/12/11 01:06:18;;;;;;;32.35;14.93;;;;;;;0.72;89.17;100494.38;5058044;28;20514;-76
2021/12/11 01:08:55;;;;;;;31.75;16.83;;;;;;;0.66;89.33;100487.53;5036651;28;20033;-76
2021/12/11 01:11:47;;;;;;;33.95;17.98;;;;;;;0.69;89.26;100495.34;5061288;28;20036;-76
2021/12/11 01:14:30;;;;;;;31.52;15.73;;;;;;;0.66;89.14;100506.06;5047148;28;20025;-76
2021/12/11 01:17:06;;;;;;;31.85;16.05;;;;;;;0.59;89.01;100501.91;5051324;28;20055;-76
2021/12/11 01:19:37;;;;;;;32.67;16.10;;;;;;;0.57;89.79;100509.06;5044797;28;20033;-76
2021/12/11 01:22:11;;;;;;;33.85;17.55;;;;;;;0.56;89.16;100509.97;5042827;28;20033;-77
2021/12/11 01:24:43;;;;;;;33.97;16.70;;;;;;;0.54;89.36;100517.06;5046702;28;20047;-76
2021/12/11 01:27:12;;;;;;;31.88;14.55;;;;;;;0.54;89.27;100514.44;5050777;28;20044;-76
2021/12/11 01:29:39;;;;;;;33.88;18.20;;;;;;;0.52;88.94;100521.56;5049277;28;20046;-76
2021/12/11 01:32:06;;;;;;;33.00;16.08;;;;;;;0.55;89.91;100524.09;5037413;28;20028;-76
2021/12/11 01:34:33;;;;;;;31.38;15.60;;;;;;;0.57;90.43;100529.31;5054265;28;20033;-76
2021/12/11 01:37:00;;;;;;;31.42;16.65;;;;;;;0.58;90.24;100531.91;5052969;28;20431;-76
2021/12/11 01:39:34;;;;;;;33.80;16.45;;;;;;;0.63;89.96;100544.97;5047041;28;20033;-76
2021/12/11 01:42:05;;;;;;;35.60;17.05;;;;;;;0.60;90.05;100556.53;5038027;28;20032;-76
2021/12/11 01:44:34;;;;;;;31.38;16.38;;;;;;;0.63;90.00;100561.72;5036988;28;20033;-76
2021/12/11 01:47:09;;;;;;;39.57;19.57;;;;;;;0.63;89.91;100567.00;5034400;28;20083;-76
2021/12/11 01:49:36;;;;;;;33.13;17.73;;;;;;;0.64;90.00;100579.28;5039505;28;20144;-76
2021/12/11 01:52:29;;;;;;;32.33;17.10;;;;;;;0.66;89.94;100588.03;5033419;28;20039;-76
2021/12/11 01:54:54;;;;;;;32.72;17.63;;;;;;;0.67;90.28;100597.72;5031263;28;20040;-76
2021/12/11 01:57:24;;;;;;;33.25;18.95;;;;;;;0.68;89.85;100603.84;5032134;28;20049;-76
2021/12/11 02:00:30;;;;;;;32.75;17.48;;;;;;;0.74;90.25;100619.50;5037091;28;20436;-76
2021/12/11 02:03:00;;;;;;;33.42;17.75;;;;;;;0.75;90.70;100625.63;5032316;28;20096;-77
2021/12/11 02:05:27;;;;;;;;;;;;;;;0.85;89.85;100629.72;5054096;28;20107;-77
2021/12/11 02:08:00;;;;;;;31.98;15.57;;;;;;;0.82;91.03;100625.38;5038864;28;20007;-77
2021/12/11 02:10:36;;;;;;;30.23;14.43;;;;;;;0.91;91.59;100626.84;5043347;28;20065;-77
2021/12/11 02:13:05;;;;;;;33.45;16.33;;;;;;;0.96;91.71;100626.66;5049622;28;20041;-77
2021/12/11 02:15:37;;;;;;;31.67;17.85;;;;;;;1.01;91.71;100628.22;5048328;28;20116;-77
2021/12/11 02:18:19;;;;;;;31.42;16.42;;;;;;;1.12;91.69;100637.53;5031621;28;20047;-77
2021/12/11 02:20:55;;;;;;;32.85;18.00;;;;;;;1.13;91.81;100633.94;5047016;28;20087;-77
2021/12/11 02:23:21;;;;;;;31.70;15.13;;;;;;;1.13;91.08;100632.19;5032547;28;20025;-77
2021/12/11 02:25:49;;;;;;;31.23;16.95;;;;;;;1.18;91.36;100637.31;5041575;28;20038;-77
2021/12/11 02:28:36;;;;;;;33.47;17.95;;;;;;;1.20;91.40;100653.97;5041954;28;20060;-77
2021/12/11 02:31:27;;;;;;;30.88;14.57;;;;;;;1.20;90.89;100657.50;5036626;28;20039;-77
2021/12/11 02:33:59;;;;;;;31.52;15.93;;;;;;;1.20;91.09;100661.91;5048387;28;20033;-77
2021/12/11 02:36:29;;;;;;;29.52;15.82;;;;;;;1.21;91.60;100672.44;5048324;28;20025;-77
2021/12/11 02:39:05;;;;;;;34.45;16.52;;;;;;;1.24;91.02;100674.13;5047842;28;20369;-77
2021/12/11 02:41:49;;;;;;;31.40;16.63;;;;;;;1.24;91.36;100674.13;5049897;28;20549;-77
2021/12/11 02:44:27;;;;;;;31.58;14.98;;;;;;;1.25;90.84;100680.31;5043540;28;20017;-77
2021/12/11 02:47:14;;;;;;;37.88;16.88;;;;;;;1.29;91.41;100682.78;5050800;28;20093;-77
2021/12/11 02:49:49;;;;;;;29.38;16.13;;;;;;;1.29;91.22;100687.19;5045307;28;20029;-77
2021/12/11 02:52:45;;;;;;;28.60;14.77;;;;;;;1.37;91.13;100690.41;5030199;28;20047;-77
2021/12/11 02:55:20;;;;;;;32.40;16.95;;;;;;;1.32;90.64;100700.34;5041118;28;20469;-77
2021/12/11 02:57:50;;;;;;;32.42;15.23;;;;;;;1.31;90.77;100707.41;5041377;28;20044;-77
2021/12/11 03:00:18;;;;;;;;;;;;;;;1.40;90.25;100711.50;5046165;28;20032;-77
2021/12/11 03:02:48;;;;;;;32.67;15.43;;;;;;;1.31;90.25;100703.91;5048008;28;19959;-77
2021/12/11 03:05:17;;;;;;;30.30;15.57;;;;;;;1.29;90.35;100713.66;5032477;28;20358;-77
2021/12/11 03:07:50;;;;;;;30.23;15.93;;;;;;;1.26;89.70;100709.38;5034698;28;20118;-77
2021/12/11 03:10:17;;;;;;;31.58;17.33;;;;;;;1.26;90.26;100716.44;5040581;28;20031;-77
2021/12/11 03:12:44;;;;;;;32.33;16.63;;;;;;;1.29;90.50;100726.91;5044562;28;20052;-77
2021/12/11 03:15:11;;;;;;;31.50;16.08;;;;;;;1.25;90.21;100731.47;5043058;28;20036;-77
2021/12/11 03:17:37;;;;;;;32.22;16.98;;;;;;;1.25;90.72;100731.47;5046866;28;20056;-77
2021/12/11 03:20:05;;;;;;;32.33;17.35;;;;;;;1.25;90.90;100738.56;5049253;28;20048;-77
2021/12/11 03:22:33;;;;;;;31.35;16.80;;;;;;;1.26;91.39;100733.19;5030904;28;20527;-77
2021/12/11 03:25:01;;;;;;;29.02;16.02;;;;;;;1.32;91.16;100740.91;5047993;28;20028;-77
2021/12/11 03:27:27;;;;;;;31.10;16.30;;;;;;;1.33;91.44;100742.66;5041396;28;20039;-77
2021/12/11 03:29:53;;;;;;;31.13;15.90;;;;;;;1.33;91.25;100747.94;5042511;28;20014;-77
2021/12/11 03:32:20;;;;;;;29.45;15.52;;;;;;;1.39;91.61;100747.72;5035297;28;20088;-77
2021/12/11 03:34:47;;;;;;;35.70;17.88;;;;;;;1.43;92.03;100758.19;5032651;28;20062;-77
2021/12/11 03:37:15;;;;;;;34.85;16.70;;;;;;;1.43;91.36;100755.53;5034555;28;20027;-77
2021/12/11 03:39:46;;;;;;;34.63;18.48;;;;;;;1.45;91.68;100753.69;5035870;28;20017;-77
2021/12/11 03:42:19;;;;;;;33.13;17.50;;;;;;;1.43;91.43;100753.75;5042997;28;20102;-77
2021/12/11 03:44:45;;;;;;;32.85;18.40;;;;;;;1.44;91.42;100746.69;5046529;28;20028;-77
2021/12/11 03:47:16;;;;;;;31.13;16.48;;;;;;;1.46;91.84;100758.06;5028979;28;20371;-77
2021/12/11 03:49:41;;;;;;;32.33;17.95;;;;;;;1.48;92.22;100756.22;5048541;28;20028;-77
2021/12/11 03:52:09;;;;;;;31.77;18.25;;;;;;;1.49;92.33;100755.31;5040734;28;20104;-77
2021/12/11 03:54:37;;;;;;;32.45;18.45;;;;;;;1.54;92.49;100750.72;5034595;28;20091;-77
2021/12/11 03:57:06;;;;;;;33.10;17.52;;;;;;;1.57;92.38;100762.03;5032739;28;20100;-77
2021/12/11 03:59:32;;;;;;;36.97;18.27;;;;;;;1.65;92.31;100761.75;5038837;28;20033;-77
2021/12/11 04:02:05;;;;;;;33.25;18.88;;;;;;;1.65;92.66;100767.03;5043125;28;20385;-77
2021/12/11 04:04:36;;;;;;;32.42;18.48;;;;;;;1.70;92.69;100770.41;5043516;28;20254;-77
2021/12/11 04:07:04;;;;;;;33.45;18.33;;;;;;;1.75;92.73;100768.44;5047441;28;20060;-77
2021/12/11 04:09:30;;;;;;;34.42;16.88;;;;;;;1.79;92.81;100777.13;5047852;28;20419;-77
2021/12/11 04:11:56;;;;;;;32.63;18.95;;;;;;;1.83;92.84;100780.53;5036578;28;20029;-77
2021/12/11 04:14:30;;;;;;;34.78;18.05;;;;;;;1.86;92.87;100783.06;5031424;28;20445;-77
2021/12/11 04:16:56;;;;;;;31.40;17.85;;;;;;;1.89;93.21;100790.91;5048117;28;20152;-77
2021/12/11 04:19:22;;;;;;;31.45;17.10;;;;;;;1.89;92.69;100783.81;5046117;28;20047;-77
2021/12/11 04:21:49;;;;;;;33.88;18.15;;;;;;;1.92;92.80;100782.84;5048883;28;20049;-77
2021/12/11 04:24:17;;;;;;;35.00;19.05;;;;;;;1.91;93.11;100791.72;5042875;28;20020;-77
2021/12/11 04:26:43;;;;;;;33.78;19.50;;;;;;;1.94;92.98;100806.63;5031281;28;20128;-77
2021/12/11 04:29:08;;;;;;;34.38;18.90;;;;;;;1.96;93.29;100797.69;5036096;28;20103;-77
2021/12/11 04:31:36;;;;;;;35.03;19.77;;;;;;;2.01;93.12;100803.69;5056577;28;20032;-77
2021/12/11 04:34:07;;;;;;;33.30;17.98;;;;;;;2.04;92.84;100802.72;5038542;28;20038;-77
2021/12/11 04:36:39;;;;;;;32.42;17.75;;;;;;;2.04;93.06;100808.88;5046311;28;20108;-77
2021/12/11 04:39:08;;;;;;;35.95;18.88;;;;;;;2.07;93.07;100807.88;5051466;28;20031;-77
2021/12/11 04:41:41;;;;;;;32.40;18.90;;;;;;;2.08;93.14;100812.28;5039089;28;20429;-77
2021/12/11 04:44:17;;;;;;;32.83;18.00;;;;;;;2.11;93.29;100820.09;5037585;28;20058;-79
2021/12/11 04:46:43;;;;;;;31.70;17.95;;;;;;;2.12;93.28;100826.25;5038465;28;20448;-78
2021/12/11 04:49:18;;;;;;;36.45;18.98;;;;;;;2.14;93.30;100832.34;5037850;28;20048;-78
2021/12/11 04:51:57;;;;;;;36.28;20.08;;;;;;;2.16;93.56;100830.53;5034239;28;20034;-77
2021/12/11 04:54:40;;;;;;;33.33;17.23;;;;;;;2.18;92.98;100841.94;5032034;28;20025;-77
2021/12/11 04:57:48;;;;;;;32.22;16.38;;;;;;;2.19;93.43;100844.53;5042158;28;20035;-77
2021/12/11 05:05:23;;;;;;;29.38;15.85;;;;;;;2.28;93.30;100851.25;5029751;28;20029;-77
2021/12/11 05:10:38;;;;;;;33.17;18.35;;;;;;;2.31;93.68;100863.53;5041680;28;20083;-78
2021/12/11 05:13:04;;;;;;;31.88;17.55;;;;;;;2.33;93.42;100864.34;5042772;28;20111;-78
2021/12/11 05:15:34;;;;;;;34.75;16.83;;;;;;;2.33;93.61;100859.91;5033874;28;20068;-78
2021/12/11 05:18:02;;;;;;;35.22;17.90;;;;;;;2.36;93.89;100872.19;5039962;28;20029;-78
2021/12/11 05:20:32;;;;;;;35.15;17.48;;;;;;;2.39;94.00;100872.06;5032513;28;20053;-78
2021/12/11 05:22:57;;;;;;;33.33;18.08;;;;;;;2.41;93.65;100876.38;5034872;28;20040;-78
2021/12/11 05:25:23;;;;;;;29.45;16.23;;;;;;;2.42;93.64;100877.25;5036589;28;20025;-78
2021/12/11 05:27:48;;;;;;;33.38;18.65;;;;;;;2.41;93.90;100876.38;5048341;28;20025;-78
2021/12/11 05:30:17;;;;;;;33.42;19.83;;;;;;;2.42;93.58;100886.06;5050968;28;20031;-78
2021/12/11 05:32:43;;;;;;;32.25;17.50;;;;;;;2.43;93.87;100885.16;5050025;28;20524;-78
2021/12/11 05:35:10;;;;;;;31.15;16.25;;;;;;;2.45;94.03;100883.28;5049024;28;20036;-78
2021/12/11 05:37:35;;;;;;;32.20;18.85;;;;;;;2.49;93.88;100883.16;5044642;28;20413;-78
2021/12/11 05:40:01;;;;;;;30.00;17.98;;;;;;;2.47;94.07;100882.38;5046545;28;20057;-78
2021/12/11 05:42:26;;;;;;;31.05;18.25;;;;;;;2.49;94.15;100891.13;5031789;28;20091;-78
2021/12/11 05:44:52;;;;;;;32.72;17.13;;;;;;;2.49;93.94;100886.72;5044834;28;20018;-78
2021/12/11 05:47:20;;;;;;;31.77;15.43;;;;;;;2.50;94.41;100901.69;5044551;28;20021;-78
2021/12/11 05:49:46;;;;;;;30.17;17.13;;;;;;;2.50;94.36;100906.97;5046464;28;20035;-78
2021/12/11 05:52:12;;;;;;;33.35;17.25;;;;;;;2.52;94.81;100904.28;5043282;28;20127;-78
2021/12/11 05:54:40;;;;;;;31.73;17.98;;;;;;;2.53;94.23;100916.63;5040539;28;20174;-78
2021/12/11 05:57:09;;;;;;;30.90;17.25;;;;;;;2.55;94.52;100907.69;5046340;28;20075;-78
2021/12/11 05:59:36;;;;;;;29.55;16.60;;;;;;;2.56;94.44;100900.56;5050020;28;20633;-78
2021/12/11 06:02:10;;;;;;;29.52;16.15;;;;;;;2.59;94.51;100911.94;5043441;28;20020;-78
2021/12/11 06:04:38;;;;;;;30.58;17.13;;;;;;;2.56;94.21;100912.06;5051319;28;20701;-78
2021/12/11 06:07:06;;;;;;;29.27;15.85;;;;;;;2.58;94.42;100914.66;5051037;28;20016;-78
2021/12/11 06:09:32;;;;;;;29.55;16.77;;;;;;;2.55;94.19;100917.44;5040943;28;20029;-78
2021/12/11 06:12:02;;;;;;;29.33;15.43;;;;;;;2.54;93.92;100918.34;5036787;28;20032;-78
2021/12/11 06:14:28;;;;;;;27.75;15.25;;;;;;;2.55;94.45;100920.94;5044616;28;20053;-78
2021/12/11 06:16:56;;;;;;;30.90;17.20;;;;;;;2.52;94.52;100926.38;5034354;28;20033;-78
2021/12/11 06:19:22;;;;;;;31.20;17.42;;;;;;;2.53;94.19;100935.19;5044237;28;20052;-78
2021/12/11 06:21:50;;;;;;;30.27;17.67;;;;;;;2.54;94.34;100944.88;5040355;28;20045;-78
2021/12/11 06:24:15;;;;;;;30.85;17.65;;;;;;;2.53;94.62;100945.81;5039731;28;20091;-78
2021/12/11 06:26:41;;;;;;;31.10;18.98;;;;;;;2.53;94.47;100951.09;5041426;28;20040;-78
2021/12/11 06:29:06;;;;;;;33.78;19.92;;;;;;;2.53;94.67;100945.81;5053090;28;20024;-78
2021/12/11 06:31:32;;;;;;;39.53;22.27;;;;;;;2.55;95.04;100957.25;5054295;28;20446;-78
2021/12/11 06:33:57;;;;;;;36.88;19.80;;;;;;;2.56;95.38;100953.66;5037107;28;20051;-78
2021/12/11 06:36:24;;;;;;;35.22;21.05;;;;;;;2.60;95.12;100964.06;5030949;28;20466;-78
2021/12/11 06:38:53;;;;;;;40.45;22.98;;;;;;;2.62;95.41;100961.34;5037024;28;20031;-78
2021/12/11 06:41:22;;;;;;;38.88;22.30;;;;;;;2.64;95.64;100964.84;5044653;28;20107;-78
2021/12/11 06:43:49;;;;;;;37.83;23.10;;;;;;;2.69;95.65;100975.28;5050675;28;20029;-78
2021/12/11 06:46:15;;;;;;;38.55;22.35;;;;;;;2.70;95.57;100980.53;5038821;28;20101;-78
2021/12/11 06:48:40;;;;;;;39.72;23.08;;;;;;;2.73;95.59;100985.69;5045233;28;20366;-78
2021/12/11 06:51:06;;;;;;;38.97;24.48;;;;;;;2.76;95.77;100985.59;5035364;28;20049;-78
2021/12/11 06:53:37;;;;;;;38.50;23.55;;;;;;;2.78;95.95;100997.03;5042948;28;20029;-78
2021/12/11 06:56:04;;;;;;;41.40;22.40;;;;;;;2.82;95.90;100991.59;5046612;28;20025;-78
2021/12/11 06:58:31;;;;;;;39.45;23.85;;;;;;;2.84;95.63;100995.94;5032262;28;20034;-78
2021/12/11 07:00:57;;;;;;;40.88;24.45;;;;;;;2.89;95.47;100998.41;5035003;28;20396;-78
2021/12/11 07:03:22;;;;;;;36.03;24.58;;;;;;;2.90;95.79;101008.06;5044511;28;20028;-78
2021/12/11 07:05:48;;;;;;;38.35;23.67;;;;;;;2.93;95.66;101002.66;5040166;28;20105;-78
2021/12/11 07:08:15;;;;;;;35.95;22.60;;;;;;;2.94;95.96;101001.72;5038586;28;20037;-78
2021/12/11 07:10:41;;;;;;;38.28;23.83;;;;;;;2.97;96.32;101009.56;5037029;28;20505;-78
2021/12/11 07:13:08;;;;;;;38.13;23.15;;;;;;;3.01;96.06;101016.50;5047869;28;20036;-78
2021/12/11 07:15:34;;;;;;;35.72;22.08;;;;;;;3.01;96.10;101013.84;5036706;28;20033;-78
2021/12/11 07:18:00;;;;;;;36.60;24.23;;;;;;;3.04;95.73;101016.38;5043054;28;20021;-78
2021/12/11 07:20:25;;;;;;;36.70;21.63;;;;;;;3.05;96.30;101020.75;5032289;28;20500;-78
2021/12/11 07:22:51;;;;;;;34.58;21.10;;;;;;;3.07;96.03;101021.56;5030819;28;20087;-78
2021/12/11 07:25:52;;;;;;;33.33;20.98;;;;;;;3.10;96.01;101032.03;5035800;28;20033;-78
2021/12/11 07:28:50;;;;;;;31.67;18.63;;;;;;;3.11;95.90;101041.75;5059412;28;20480;-78
2021/12/11 07:31:16;;;;;;;32.97;17.90;;;;;;;3.14;95.70;101040.78;5014215;28;20060;-78
2021/12/11 07:33:41;;;;;;;33.03;20.05;;;;;;;3.17;95.71;101055.75;5045031;28;20021;-78
2021/12/11 07:36:07;;;;;;;32.72;18.55;;;;;;;3.20;95.32;101047.66;5030921;28;20067;-78
2021/12/11 07:38:32;;;;;;;30.92;19.05;;;;;;;3.23;95.29;101060.81;5036833;28;20021;-78
2021/12/11 07:41:01;;;;;;;32.33;17.33;;;;;;;3.27;95.59;101063.28;5045434;28;20377;-78
2021/12/11 07:43:28;;;;;;;35.58;17.63;;;;;;;3.29;95.41;101065.88;5046554;28;20044;-78
2021/12/11 07:45:56;;;;;;;32.42;16.13;;;;;;;3.32;95.39;101055.13;5054934;28;20052;-78
2021/12/11 07:48:21;;;;;;;31.17;15.95;;;;;;;3.36;95.18;101077.97;5046768;28;20470;-78
2021/12/11 07:50:47;;;;;;;27.50;15.40;;;;;;;3.39;94.91;101075.19;5036794;28;20033;-78
2021/12/11 07:53:14;;;;;;;28.02;14.55;;;;;;;3.42;95.19;101068.91;5036912;28;20033;-78
2021/12/11 07:55:40;;;;;;;26.40;14.10;;;;;;;3.43;95.48;101084.78;5045034;28;20032;-78
2021/12/11 07:58:06;;;;;;;29.33;13.13;;;;;;;3.47;95.19;101081.09;5041901;28;20029;-78
2021/12/11 08:00:34;;;;;;;26.60;12.60;;;;;;;3.48;95.54;101093.47;5037638;28;20390;-78
2021/12/11 08:03:00;;;;;;;26.92;13.27;;;;;;;3.52;95.46;101088.00;5042000;28;20070;-78
2021/12/11 08:05:27;;;;;;;25.77;13.05;;;;;;;3.53;95.46;101103.91;5047209;28;20032;-78
2021/12/11 08:07:53;;;;;;;24.52;11.00;;;;;;;3.56;95.29;101103.78;5035552;28;20024;-78
2021/12/11 08:10:22;;;;;;;24.50;10.98;;;;;;;3.58;95.21;101101.91;5036331;28;20026;-78
2021/12/11 08:12:49;;;;;;;26.08;11.93;;;;;;;3.61;95.12;101104.44;5031937;28;20033;-78
2021/12/11 08:15:16;;;;;;;25.48;10.90;;;;;;;3.64;95.27;101114.09;5042681;28;20020;-78
2021/12/11 08:17:51;;;;;;;24.98;10.60;;;;;;;3.64;94.96;101104.31;5048516;28;20029;-78
2021/12/11 08:20:16;;;;;;;28.17;9.57;;;;;;;3.64;94.98;101106.97;5042624;28;20139;-78
2021/12/11 08:22:42;;;;;;;22.55;10.25;;;;;;;3.65;95.30;101123.78;5030166;28;20053;-78
2021/12/11 08:25:08;;;;;;;25.63;9.45;;;;;;;3.65;94.97;101127.31;5035797;28;20487;-78
2021/12/11 08:27:34;;;;;;;23.10;8.23;;;;;;;3.66;95.22;101128.16;5062652;28;20089;-78
2021/12/11 08:29:59;;;;;;;25.25;8.23;;;;;;;3.67;95.06;101129.91;5046674;28;20107;-78
2021/12/11 08:32:25;;;;;;;24.45;7.65;;;;;;;3.69;95.77;101144.03;5069757;28;20044;-78
2021/12/11 08:34:52;;;;;;;28.38;8.00;;;;;;;3.72;95.70;101141.25;5053265;28;20040;-78
2021/12/11 08:37:21;;;;;;;28.52;7.70;;;;;;;3.76;95.97;101153.44;5044580;28;20032;-78
2021/12/11 08:39:47;;;;;;;24.65;6.60;;;;;;;3.80;96.03;101157.72;5032190;28;20408;-78
2021/12/11 08:42:16;;;;;;;24.75;7.22;;;;;;;3.83;95.89;101157.59;5049662;28;20025;-78
2021/12/11 08:44:50;;;;;;;22.15;5.55;;;;;;;3.90;95.85;101168.00;5049678;28;20029;-78
2021/12/11 08:47:16;;;;;;;17.90;6.03;;;;;;;3.93;95.72;101160.75;5048023;28;20033;-78
2021/12/11 08:49:42;;;;;;;18.25;5.60;;;;;;;3.98;95.87;101172.09;5049791;28;20041;-78
2021/12/11 08:52:22;;;;;;;22.05;5.70;;;;;;;4.05;95.89;101169.19;5049495;28;20488;-78
2021/12/11 08:54:48;;;;;;;20.55;5.07;;;;;;;4.11;95.68;101174.25;5048243;28;20091;-78
2021/12/11 08:57:16;;;;;;;21.40;5.95;;;;;;;4.14;95.87;101176.78;5049682;28;20025;-78
2021/12/11 08:59:47;;;;;;;18.42;4.65;;;;;;;4.20;95.49;101181.81;5059071;28;20025;-78
2021/12/11 09:02:20;;;;;;;26.00;5.82;;;;;;;4.24;95.63;101187.91;5047796;28;20036;-78
2021/12/11 09:04:55;;;;;;;23.80;5.38;;;;;;;4.29;95.63;101185.91;5033838;28;20029;-78
2021/12/11 09:07:41;;;;;;;18.70;4.72;;;;;;;4.31;95.64;101203.53;5042618;28;20043;-78
2021/12/11 09:10:19;;;;;;;20.58;5.75;;;;;;;4.36;95.69;101200.69;5053455;28;20025;-78
2021/12/11 09:13:07;;;;;;;21.27;4.35;;;;;;;4.41;95.70;101209.34;5039080;28;20315;-78
2021/12/11 09:15:43;;;;;;;21.20;4.53;;;;;;;4.42;95.85;101213.72;5048048;28;20060;-78
2021/12/11 09:18:14;;;;;;;15.65;4.45;;;;;;;4.47;95.56;101234.84;5041752;28;20036;-78
2021/12/11 09:20:51;;;;;;;21.23;5.13;;;;;;;4.48;95.55;101237.44;5051374;28;20045;-78
2021/12/11 09:23:24;;;;;;;16.23;3.67;;;;;;;4.55;95.56;101238.94;5053340;28;20393;-78
2021/12/11 09:26:09;;;;;;;18.58;3.90;;;;;;;4.61;95.79;101240.47;5053635;28;20476;-78
2021/12/11 09:29:09;;;;;;;20.98;5.00;;;;;;;4.69;95.51;101254.31;5053466;28;20029;-78
2021/12/11 09:32:03;;;;;;;14.27;4.32;;;;;;;4.77;95.84;101261.97;5024368;28;20037;-78
2021/12/11 09:34:37;;;;;;;15.35;4.55;;;;;;;4.83;95.66;101264.38;5031558;28;20056;-78
2021/12/11 09:37:05;;;;;;;19.40;4.72;;;;;;;4.95;96.03;101272.75;5032164;28;20033;-78
2021/12/11 09:39:38;;;;;;;25.35;5.53;;;;;;;4.99;95.48;101274.38;5053212;28;20036;-78
2021/12/11 09:42:03;;;;;;;16.85;4.03;;;;;;;5.10;94.76;101284.56;5050957;28;20032;-80
2021/12/11 09:44:53;;;;;;;14.60;4.70;;;;;;;5.16;94.93;101285.16;5048457;28;20397;-80
2021/12/11 09:47:23;;;;;;;15.73;4.05;;;;;;;5.22;94.24;101284.03;5038391;28;20021;-80
2021/12/11 09:49:58;;;;;;;19.17;4.32;;;;;;;5.26;93.77;101290.97;5051095;28;20022;-80
2021/12/11 09:52:27;;;;;;;16.75;4.30;;;;;;;5.30;93.99;101297.00;5050182;28;20226;-80
2021/12/11 09:54:57;;;;;;;17.08;4.82;;;;;;;5.34;94.12;101309.28;5051753;28;20489;-79
2021/12/11 09:57:25;;;;;;;16.83;4.38;;;;;;;5.31;93.73;101304.06;5032956;28;20048;-79
2021/12/11 09:59:53;;;;;;;20.70;4.95;;;;;;;5.30;93.59;101307.66;5040956;28;20119;-79
2021/12/11 10:02:27;;;;;;;20.70;4.15;;;;;;;5.29;93.55;101309.47;5050755;28;20044;-79
2021/12/11 10:05:01;;;;;;;22.17;4.90;;;;;;;5.27;93.86;101311.34;5050990;28;20104;-79
2021/12/11 10:07:35;;;;;;;20.35;4.28;;;;;;;5.27;93.90;101323.78;5044934;28;20029;-79
2021/12/11 10:10:23;;;;;;;29.25;5.80;;;;;;;5.28;94.03;101326.41;5032785;28;20032;-79
2021/12/11 10:12:52;;;;;;;14.82;3.63;;;;;;;5.27;93.71;101331.78;5031488;28;20506;-79
2021/12/11 10:15:26;;;;;;;18.65;4.57;;;;;;;5.27;92.94;101329.13;5031656;28;20029;-78
2021/12/11 10:18:20;;;;;;;22.25;4.00;;;;;;;5.25;93.35;101338.03;5034817;28;20025;-78
2021/12/11 10:20:53;;;;;;;16.70;3.30;;;;;;;5.27;93.28;101345.13;5047014;28;20054;-78
2021/12/11 10:23:24;;;;;;;18.40;4.72;;;;;;;5.27;93.60;101342.44;5043784;28;20051;-78
2021/12/11 10:25:51;;;;;;;21.17;4.60;;;;;;;5.26;93.54;101344.25;5052494;28;20493;-78
2021/12/11 10:28:19;;;;;;;17.58;4.60;;;;;;;5.28;93.26;101344.19;5052495;28;20507;-79
2021/12/11 10:30:52;;;;;;;15.18;4.30;;;;;;;5.31;94.04;101357.38;5069399;28;20490;-79
2021/12/11 10:33:20;;;;;;;24.10;5.55;;;;;;;5.32;93.19;101351.13;5050747;28;20025;-78
2021/12/11 10:35:49;;;;;;;19.33;5.38;;;;;;;5.31;92.54;101355.56;5050451;28;20370;-78
2021/12/11 10:38:17;;;;;;;17.85;5.47;;;;;;;5.35;92.67;101364.31;5050377;28;20112;-78
2021/12/11 10:40:46;;;;;;;20.17;4.93;;;;;;;5.37;93.09;101365.09;5045315;28;20434;-78
2021/12/11 10:43:18;;;;;;;24.63;6.47;;;;;;;5.40;93.01;101364.97;5050082;28;20079;-78
2021/12/11 10:45:44;;;;;;;16.83;4.88;;;;;;;5.41;93.46;101364.91;5051880;28;20431;-78
2021/12/11 10:48:13;;;;;;;22.30;5.53;;;;;;;5.47;93.64;101369.09;5049979;28;20498;-79
2021/12/11 10:50:44;;;;;;;21.05;5.68;;;;;;;5.50;93.04;101379.63;5035596;28;20516;-79
2021/12/11 10:53:13;;;;;;;20.15;5.05;;;;;;;5.56;92.33;101382.06;5050520;28;20183;-80
2021/12/11 10:55:39;;;;;;;21.60;5.47;;;;;;;5.62;92.74;101388.03;5051899;28;20427;-79
2021/12/11 10:58:10;;;;;;;22.48;5.55;;;;;;;5.66;92.61;101386.97;5050276;28;20021;-79
2021/12/11 11:01:08;;;;;;;24.38;5.68;;;;;;;5.70;92.64;101388.56;5045667;28;20500;-79
2021/12/11 11:03:37;;;;;;;17.23;5.30;;;;;;;5.70;92.75;101389.44;5031604;28;20036;-77
2021/12/11 11:06:04;;;;;;;16.45;4.57;;;;;;;5.72;92.60;101405.38;5043752;28;20025;-79
2021/12/11 11:08:31;;;;;;;23.02;5.18;;;;;;;5.73;92.41;101402.63;5032066;28;20036;-79
2021/12/11 11:11:03;;;;;;;22.05;5.43;;;;;;;5.74;92.36;101416.81;5029939;28;20083;-79
2021/12/11 11:13:28;;;;;;;18.95;5.40;;;;;;;5.74;92.32;101417.72;5035148;28;20171;-79
2021/12/11 11:15:55;;;;;;;17.77;4.68;;;;;;;5.77;92.82;101419.38;5041627;28;20063;-79
2021/12/11 11:18:22;;;;;;;18.75;4.88;;;;;;;5.80;92.64;101424.56;5037666;28;20477;-79
2021/12/11 11:21:00;;;;;;;22.25;5.30;;;;;;;5.85;92.79;101429.69;5043429;28;20126;-79
2021/12/11 11:23:25;;;;;;;16.38;4.43;;;;;;;5.85;92.60;101433.22;5050574;28;20513;-79
2021/12/11 11:25:54;;;;;;;21.08;4.75;;;;;;;5.89;92.51;101429.50;5047411;28;20194;-78
2021/12/11 11:28:22;;;;;;;15.45;3.80;;;;;;;5.91;92.45;101427.63;5045739;28;20109;-78
2021/12/11 11:30:52;;;;;;;19.23;5.15;;;;;;;5.97;92.36;101441.63;5053658;28;20034;-78
2021/12/11 11:33:19;;;;;;;25.95;5.07;;;;;;;5.99;92.12;101438.00;5041226;28;20045;-78
2021/12/11 11:35:47;;;;;;;17.52;4.32;;;;;;;6.00;91.54;101437.03;5049333;28;20426;-80
2021/12/11 11:38:16;;;;;;;17.30;4.38;;;;;;;5.99;91.45;101448.66;5041390;28;20021;-80
2021/12/11 11:40:46;;;;;;;25.35;5.55;;;;;;;5.99;91.47;101456.69;5044520;28;20033;-79
2021/12/11 11:43:12;;;;;;;17.48;4.47;;;;;;;6.00;92.07;101447.72;5029291;28;20033;-79